Time;durP1;ratioP1;P1;durP2;ratioP2;P2;SDS_P1;SDS_P2;PMS_P1;PMS_P2;Temp;Humidity;BMP_temperature;BMP_pressure;BME280_temperature;BME280_humidity;BME280_pressure;Samples;Min_cycle;Max_cycle;Signal;HPM_P1;HPM_P2
2023/07/13 00:01:38;;;;;;;11.82;7.85;;;640.60;2432.00;;;;;;5090218;28;20031;-68
2023/07/13 00:04:04;;;;;;;9.32;7.93;;;640.40;2432.00;;;;;;5090253;28;20049;-63
2023/07/13 00:06:32;;;;;;;7.60;6.70;;;640.40;2432.00;;;;;;5090017;28;20458;-64
2023/07/13 00:08:59;;;;;;;8.52;7.18;;;640.40;2432.00;;;;;;5090410;28;20115;-69
2023/07/13 00:11:25;;;;;;;11.57;7.70;;;640.40;2432.00;;;;;;5089859;28;20024;-66
2023/07/13 00:13:51;;;;;;;8.45;7.50;;;640.50;2432.00;;;;;;5090175;28;20020;-64
2023/07/13 00:16:18;;;;;;;11.10;7.55;;;640.50;2432.00;;;;;;5090078;28;20024;-62
2023/07/13 00:18:44;;;;;;;10.50;8.20;;;640.50;2432.00;;;;;;5090027;28;20020;-64
2023/07/13 00:21:10;;;;;;;10.98;7.93;;;640.50;2432.00;;;;;;5089876;28;20374;-64
2023/07/13 00:23:38;;;;;;;13.88;8.45;;;640.50;2432.00;;;;;;5089744;28;20035;-61
2023/07/13 00:26:07;;;;;;;9.43;7.40;;;640.50;2432.00;;;;;;5090116;28;20028;-67
2023/07/13 00:28:33;;;;;;;11.65;7.47;;;640.40;2432.00;;;;;;5089579;28;20028;-67
2023/07/13 00:30:59;;;;;;;13.52;7.53;;;640.40;2432.00;;;;;;5090002;28;20029;-65
2023/07/13 00:33:27;;;;;;;13.00;8.48;;;640.40;2432.00;;;;;;5089669;28;20389;-65
2023/07/13 00:35:54;;;;;;;8.48;7.20;;;640.40;2432.00;;;;;;5089927;28;20035;-64
2023/07/13 00:38:19;;;;;;;7.78;6.97;;;640.40;2432.00;;;;;;5089674;28;20032;-64
2023/07/13 00:40:45;;;;;;;7.95;6.53;;;640.40;2432.00;;;;;;5089536;28;20031;-67
2023/07/13 00:43:17;;;;;;;9.25;8.27;;;640.40;2432.00;;;;;;5089397;28;20103;-67
2023/07/13 00:45:43;;;;;;;12.52;7.47;;;640.30;2432.00;;;;;;5089418;28;20024;-62
2023/07/13 00:48:13;;;;;;;11.32;7.80;;;640.20;2432.00;;;;;;5089334;28;20047;-64
2023/07/13 00:50:41;;;;;;;13.50;7.88;;;640.10;2432.00;;;;;;5089575;28;20039;-66
2023/07/13 00:53:08;;;;;;;12.68;7.40;;;615.30;2432.00;;;;;;5089794;28;20039;-63
2023/07/13 00:55:34;;;;;;;11.05;7.82;;;615.20;2432.00;;;;;;5089032;28;20478;-63
2023/07/13 00:58:00;;;;;;;13.10;8.07;;;615.20;2432.00;;;;;;5089270;28;20620;-64
2023/07/13 01:00:27;;;;;;;11.68;8.02;;;615.20;2432.00;;;;;;5089275;28;20382;-69
2023/07/13 01:02:53;;;;;;;13.60;8.05;;;615.30;2432.00;;;;;;5089284;28;20020;-63
2023/07/13 01:05:21;;;;;;;11.10;7.60;;;640.00;2432.00;;;;;;5089322;28;20027;-64
2023/07/13 01:07:49;;;;;;;15.43;8.40;;;615.30;2432.00;;;;;;5089896;28;20036;-64
2023/07/13 01:10:15;;;;;;;9.88;7.38;;;615.30;2432.00;;;;;;5089081;28;20035;-69
2023/07/13 01:12:42;;;;;;;11.70;7.35;;;615.30;2432.00;;;;;;5089194;28;20028;-68
2023/07/13 01:15:40;;;;;;;12.70;7.63;;;615.20;2432.00;;;;;;5088292;28;20024;-68
2023/07/13 01:18:09;;;;;;;10.50;7.40;;;615.30;2432.00;;;;;;5089097;28;20024;-68
2023/07/13 01:20:35;;;;;;;11.05;7.72;;;615.10;2432.00;;;;;;5089244;28;20546;-69
2023/07/13 01:23:07;;;;;;;7.78;6.97;;;615.00;2432.00;;;;;;5088731;28;20035;-67
2023/07/13 01:25:34;;;;;;;10.32;7.43;;;614.80;2432.00;;;;;;5089149;28;20020;-62
2023/07/13 01:27:59;;;;;;;10.63;7.85;;;614.70;2432.00;;;;;;5088771;28;20040;-62
2023/07/13 01:30:25;;;;;;;10.45;8.00;;;614.70;2432.00;;;;;;5089369;28;20026;-68
2023/07/13 01:32:51;;;;;;;12.10;7.45;;;614.60;2432.00;;;;;;5089185;28;20103;-64
2023/07/13 01:35:16;;;;;;;9.30;7.15;;;614.60;2432.00;;;;;;5089322;28;20169;-67
2023/07/13 01:37:44;;;;;;;9.30;7.30;;;614.60;2432.00;;;;;;5088580;28;20028;-64
2023/07/13 01:40:11;;;;;;;9.70;7.43;;;614.70;2432.00;;;;;;5089115;28;20026;-67
2023/07/13 01:42:38;;;;;;;8.02;7.03;;;614.70;2432.00;;;;;;5088575;28;20485;-63
2023/07/13 01:45:04;;;;;;;9.88;6.43;;;614.60;2432.00;;;;;;5089094;28;20028;-62
2023/07/13 01:47:30;;;;;;;11.77;7.50;;;614.60;2432.00;;;;;;5088212;28;20056;-63
2023/07/13 01:49:57;;;;;;;9.23;6.90;;;614.60;2432.00;;;;;;5089057;28;20024;-62
2023/07/13 01:52:23;;;;;;;11.18;6.85;;;614.50;2432.00;;;;;;5088485;28;20032;-67
2023/07/13 01:54:48;;;;;;;8.30;6.55;;;614.40;2432.00;;;;;;5088932;28;20478;-64
2023/07/13 01:57:14;;;;;;;12.52;6.95;;;614.50;2432.00;;;;;;5088847;28;20373;-64
2023/07/13 01:59:40;;;;;;;11.48;7.65;;;614.40;2432.00;;;;;;5088953;28;20378;-65
2023/07/13 02:02:06;;;;;;;7.70;6.35;;;589.70;2432.00;;;;;;5088617;28;20055;-63
2023/07/13 02:04:32;;;;;;;8.20;6.43;;;589.70;2432.00;;;;;;5088613;28;20035;-63
2023/07/13 02:06:58;;;;;;;9.82;7.65;;;589.70;2432.00;;;;;;5088499;28;20024;-67
2023/07/13 02:09:23;;;;;;;12.27;7.75;;;589.70;2432.00;;;;;;5088728;28;20024;-68
2023/07/13 02:11:50;;;;;;;12.45;7.38;;;589.70;2432.00;;;;;;5088566;28;20017;-68
2023/07/13 02:14:16;;;;;;;8.82;7.32;;;589.70;2432.00;;;;;;5088941;28;20113;-64
2023/07/13 02:16:42;;;;;;;11.60;8.18;;;589.70;2432.00;;;;;;5088207;28;20028;-63
2023/07/13 02:19:08;;;;;;;11.10;7.32;;;614.50;2432.00;;;;;;5088688;28;20020;-63
2023/07/13 02:21:34;;;;;;;9.18;6.55;;;614.50;2432.00;;;;;;5088311;28;20081;-68
2023/07/13 02:24:00;;;;;;;11.75;7.90;;;614.60;2432.00;;;;;;5088337;28;20020;-63
2023/07/13 02:26:26;;;;;;;11.98;7.75;;;614.70;2432.00;;;;;;5091297;28;20028;-67
2023/07/13 02:28:52;;;;;;;12.40;8.00;;;614.70;2432.00;;;;;;5092010;28;20028;-66
2023/07/13 02:31:18;;;;;;;9.02;6.35;;;614.60;2432.00;;;;;;5081730;28;20021;-63
2023/07/13 02:33:43;;;;;;;9.80;7.20;;;614.60;2432.00;;;;;;5078628;28;20515;-67
2023/07/13 02:36:10;;;;;;;8.35;6.90;;;614.60;2432.00;;;;;;5088656;28;20107;-66
2023/07/13 02:38:36;;;;;;;8.18;7.05;;;614.70;2432.00;;;;;;5092064;28;20059;-65
2023/07/13 02:41:06;;;;;;;11.10;7.70;;;614.60;2432.00;;;;;;5091771;28;20073;-65
2023/07/13 02:43:32;;;;;;;9.70;6.80;;;614.60;2432.00;;;;;;5071398;28;20664;-66
2023/07/13 02:46:04;;;;;;;9.73;6.53;;;614.50;2432.00;;;;;;5072437;28;20119;-68
2023/07/13 02:48:30;;;;;;;10.18;7.20;;;614.50;2432.00;;;;;;5091945;28;20123;-64
2023/07/13 02:50:55;;;;;;;9.15;6.85;;;614.40;2432.00;;;;;;5091744;28;20024;-65
2023/07/13 02:53:21;;;;;;;9.48;8.18;;;589.70;2432.00;;;;;;5091692;28;20077;-67
2023/07/13 02:55:47;;;;;;;8.98;7.30;;;589.70;2432.00;;;;;;5077874;28;20028;-63
2023/07/13 02:58:19;;;;;;;9.52;7.88;;;589.70;2432.00;;;;;;5082500;28;20028;-68
2023/07/13 03:00:46;;;;;;;10.57;7.47;;;589.70;2432.00;;;;;;5082775;28;20020;-64
2023/07/13 03:03:13;;;;;;;9.30;6.47;;;589.70;2432.00;;;;;;5091217;28;20534;-63
2023/07/13 03:05:42;;;;;;;11.95;7.45;;;589.70;2432.00;;;;;;5091285;28;20069;-63
2023/07/13 03:08:08;;;;;;;9.80;6.95;;;589.70;2432.00;;;;;;5091552;28;20047;-62
2023/07/13 03:10:35;;;;;;;12.13;7.30;;;614.40;2432.00;;;;;;5079593;28;20024;-62
2023/07/13 03:13:00;;;;;;;10.35;7.13;;;614.40;2432.00;;;;;;5089273;28;20133;-62
2023/07/13 03:15:27;;;;;;;9.55;7.65;;;614.40;2432.00;;;;;;5091249;28;20024;-64
2023/07/13 03:17:53;;;;;;;14.60;7.93;;;614.50;2432.00;;;;;;5086828;28;20489;-63
2023/07/13 03:20:18;;;;;;;8.80;7.18;;;614.50;2432.00;;;;;;5077352;28;20063;-62
2023/07/13 03:22:44;;;;;;;10.65;7.88;;;614.50;2432.00;;;;;;5090925;28;20044;-62
2023/07/13 03:25:10;;;;;;;10.13;7.57;;;614.50;2432.00;;;;;;5090953;28;20020;-63
2023/07/13 03:27:37;;;;;;;9.40;7.60;;;614.60;2432.00;;;;;;5090906;28;20035;-62
2023/07/13 03:30:04;;;;;;;11.65;7.65;;;614.60;2432.00;;;;;;5090690;28;20017;-63
2023/07/13 03:32:30;;;;;;;10.20;7.72;;;614.70;2432.00;;;;;;5090812;28;20099;-64
2023/07/13 03:34:56;;;;;;;9.40;7.40;;;614.80;2432.00;;;;;;5090849;28;20150;-62
2023/07/13 03:37:22;;;;;;;10.35;7.82;;;614.80;2432.00;;;;;;5089795;28;20086;-62
2023/07/13 03:39:47;;;;;;;11.30;7.65;;;614.90;2432.00;;;;;;5090567;28;20445;-63
2023/07/13 03:42:13;;;;;;;12.18;7.88;;;614.90;2432.00;;;;;;5090328;28;20098;-63
2023/07/13 03:44:40;;;;;;;9.40;6.95;;;614.90;2432.00;;;;;;5090591;28;20031;-62
2023/07/13 03:47:08;;;;;;;11.35;7.35;;;615.00;2432.00;;;;;;5090390;28;20505;-63
2023/07/13 03:49:34;;;;;;;10.85;7.65;;;615.10;2432.00;;;;;;5090596;28;20040;-63
2023/07/13 03:52:00;;;;;;;9.88;7.45;;;615.30;2432.00;;;;;;5090374;28;20031;-62
2023/07/13 03:54:26;;;;;;;11.63;7.70;;;640.00;2432.00;;;;;;5090404;28;20024;-63
2023/07/13 03:56:52;;;;;;;8.20;7.28;;;640.00;2432.00;;;;;;5090263;28;20056;-62
2023/07/13 03:59:17;;;;;;;12.25;7.35;;;640.10;2432.00;;;;;;5090632;28;20024;-62
2023/07/13 04:01:44;;;;;;;9.48;6.93;;;640.20;2432.00;;;;;;5090550;28;20020;-63
2023/07/13 04:04:10;;;;;;;7.88;6.90;;;640.30;2432.00;;;;;;5090191;28;20073;-62
2023/07/13 04:06:37;;;;;;;10.40;7.30;;;640.60;2432.00;;;;;;5090148;28;20020;-61
2023/07/13 04:09:08;;;;;;;9.88;7.35;;;640.70;2432.00;;;;;;5076993;28;20035;-61
2023/07/13 04:11:36;;;;;;;12.07;6.55;;;665.60;2432.00;;;;;;5077118;28;20028;-61
2023/07/13 04:14:02;;;;;;;8.40;7.13;;;665.70;2432.00;;;;;;5089763;28;20027;-62
2023/07/13 04:16:28;;;;;;;12.57;6.60;;;666.00;2406.40;;;;;;5089635;28;20020;-62
2023/07/13 04:18:59;;;;;;;8.57;6.43;;;666.10;2380.80;;;;;;5090297;28;20024;-64
2023/07/13 04:21:26;;;;;;;10.38;6.68;;;666.30;2380.80;;;;;;5089747;28;20020;-63
2023/07/13 04:23:52;;;;;;;11.75;6.55;;;666.30;2355.20;;;;;;5089265;28;20367;-62
2023/07/13 04:26:20;;;;;;;7.80;6.65;;;691.20;2329.60;;;;;;5086836;28;20047;-62
2023/07/13 04:28:47;;;;;;;8.90;6.90;;;691.20;2304.00;;;;;;5089652;28;20066;-64
2023/07/13 04:31:13;;;;;;;8.85;6.07;;;691.40;2278.40;;;;;;5089505;28;20066;-63
2023/07/13 04:33:39;;;;;;;8.05;6.93;;;691.60;2252.80;;;;;;5089513;28;20028;-63
2023/07/13 04:36:05;;;;;;;10.48;6.85;;;691.70;2304.00;;;;;;5089821;28;20107;-62
2023/07/13 04:38:32;;;;;;;9.93;7.30;;;691.90;2278.40;;;;;;5089930;28;20093;-63
2023/07/13 04:41:04;;;;;;;11.02;8.00;;;691.80;2406.40;;;;;;5089664;28;20103;-63
2023/07/13 04:43:31;;;;;;;12.57;7.43;;;717.40;2329.60;;;;;;5089088;28;20027;-62
2023/07/13 04:45:57;;;;;;;12.95;7.38;;;768.10;2150.40;;;;;;5089339;28;20064;-62
2023/07/13 04:48:24;;;;;;;11.35;7.07;;;794.00;2022.40;;;;;;5089366;28;20429;-62
2023/07/13 04:50:57;;;;;;;9.50;6.80;;;794.50;1945.60;;;;;;5089848;28;20028;-63
2023/07/13 04:53:23;;;;;;;9.90;7.53;;;820.10;1843.20;;;;;;5089818;28;20031;-62
2023/07/13 04:55:49;;;;;;;9.80;6.45;;;845.10;1843.20;;;;;;5089947;28;20097;-63
2023/07/13 04:58:16;;;;;;;11.40;7.43;;;870.90;1766.40;;;;;;5089792;28;20031;-63
2023/07/13 05:00:41;;;;;;;11.13;7.32;;;896.30;1664.00;;;;;;5089319;28;20069;-63
2023/07/13 05:03:07;;;;;;;13.48;7.75;;;896.90;1612.80;;;;;;5090018;28;20023;-62
2023/07/13 05:05:33;;;;;;;8.48;7.28;;;922.30;1587.20;;;;;;5088302;28;20085;-63
2023/07/13 05:07:59;;;;;;;8.35;6.93;;;947.70;1484.80;;;;;;5073369;28;20487;-62
2023/07/13 05:10:25;;;;;;;7.82;6.65;;;972.90;1536.00;;;;;;5085626;28;20058;-63
2023/07/13 05:12:51;;;;;;;12.00;7.32;;;972.90;1536.00;;;;;;5088936;28;20085;-62
2023/07/13 05:15:20;;;;;;;9.02;7.93;;;973.10;1484.80;;;;;;5089278;28;20277;-66
2023/07/13 05:17:47;;;;;;;13.73;8.88;;;998.60;1459.20;;;;;;5089294;28;20115;-66
2023/07/13 05:20:12;;;;;;;9.65;8.57;;;998.80;1459.20;;;;;;5089017;28;20058;-63
2023/07/13 05:22:38;;;;;;;12.27;9.02;;;973.70;1484.80;;;;;;5089433;28;20559;-64
2023/07/13 05:25:06;;;;;;;13.07;9.35;;;999.30;1459.20;;;;;;5089206;28;20016;-62
2023/07/13 05:27:32;;;;;;;14.27;9.45;;;1024.20;1382.40;;;;;;5088981;28;20043;-66
2023/07/13 05:29:58;;;;;;;9.20;7.95;;;1049.70;1331.20;;;;;;5089147;28;20023;-62
2023/07/13 05:32:23;;;;;;;9.30;8.38;;;1050.10;1331.20;;;;;;5088955;28;20028;-64
2023/07/13 05:34:49;;;;;;;10.48;9.27;;;1050.50;1305.60;;;;;;5088848;28;20047;-62
2023/07/13 05:37:15;;;;;;;10.15;8.98;;;1075.50;1280.00;;;;;;5088939;28;20379;-66
2023/07/13 05:39:40;;;;;;;10.07;9.13;;;1075.90;1254.40;;;;;;5088849;28;20012;-65
2023/07/13 05:42:06;;;;;;;10.77;9.40;;;1101.10;1254.40;;;;;;5089217;28;20028;-66
2023/07/13 05:44:32;;;;;;;10.52;9.18;;;1101.30;1228.80;;;;;;5088764;28;20074;-62
2023/07/13 05:46:57;;;;;;;14.80;11.15;;;1126.60;1228.80;;;;;;5088901;28;20563;-64
2023/07/13 05:49:23;;;;;;;16.70;13.50;;;1126.80;1228.80;;;;;;5088742;28;20100;-63
2023/07/13 05:51:49;;;;;;;14.30;12.95;;;1126.80;1228.80;;;;;;5088758;28;20047;-65
2023/07/13 05:54:15;;;;;;;12.68;11.48;;;1152.10;1177.60;;;;;;5088986;28;20423;-64
2023/07/13 05:56:41;;;;;;;12.98;11.77;;;1152.40;1177.60;;;;;;5088640;28;20016;-66
2023/07/13 05:59:06;;;;;;;12.63;10.80;;;1177.70;1152.00;;;;;;5089054;28;20062;-63
2023/07/13 06:01:33;;;;;;;13.00;11.70;;;1152.20;1177.60;;;;;;5091647;28;20114;-66
2023/07/13 06:03:58;;;;;;;14.52;12.88;;;1152.70;1177.60;;;;;;5092832;28;20020;-63
2023/07/13 06:06:24;;;;;;;12.82;11.45;;;1178.10;1126.40;;;;;;5092641;28;20024;-66
2023/07/13 06:08:50;;;;;;;13.45;12.13;;;1203.30;1152.00;;;;;;5092581;28;20043;-62
2023/07/13 06:11:23;;;;;;;13.32;11.63;;;1203.70;1126.40;;;;;;5092667;28;20031;-68
2023/07/13 06:13:49;;;;;;;13.88;12.60;;;1228.90;1075.20;;;;;;5092217;28;20130;-63
2023/07/13 06:16:16;;;;;;;15.30;12.18;;;1203.90;1126.40;;;;;;5092635;28;20080;-63
2023/07/13 06:18:42;;;;;;;14.18;12.40;;;1228.90;1152.00;;;;;;5092450;28;20036;-63
2023/07/13 06:21:17;;;;;;;15.38;13.30;;;1229.20;1152.00;;;;;;5092618;28;20024;-69
2023/07/13 06:23:44;;;;;;;13.35;11.93;;;1229.20;1152.00;;;;;;5092027;28;20091;-64
2023/07/13 06:26:10;;;;;;;13.23;11.95;;;1254.40;1152.00;;;;;;5092038;28;20023;-66
2023/07/13 06:28:37;;;;;;;18.63;15.43;;;1254.40;1126.40;;;;;;5092073;28;20043;-64
2023/07/13 06:31:06;;;;;;;20.55;18.58;;;1254.60;1126.40;;;;;;5092043;28;20027;-65
2023/07/13 06:33:31;;;;;;;20.40;16.38;;;1255.00;1100.80;;;;;;5092375;28;20410;-65
2023/07/13 06:35:57;;;;;;;20.80;18.60;;;1255.10;1075.20;;;;;;5092568;28;20123;-64
2023/07/13 06:38:23;;;;;;;20.98;18.95;;;1255.10;1100.80;;;;;;5092041;28;20028;-66
2023/07/13 06:40:48;;;;;;;20.27;18.25;;;1254.80;1100.80;;;;;;5091922;28;20024;-64
2023/07/13 06:43:14;;;;;;;20.27;18.23;;;1255.30;1100.80;;;;;;5091944;28;20032;-65
2023/07/13 06:45:49;;;;;;;19.38;17.58;;;1280.00;1100.80;;;;;;5091969;28;20020;-65
2023/07/13 06:48:19;;;;;;;18.75;16.80;;;;;;;;;;5091903;28;20067;-65
2023/07/13 06:50:45;;;;;;;21.58;19.73;;;1305.60;1075.20;;;;;;5091979;28;20092;-65
2023/07/13 06:53:12;;;;;;;20.50;18.33;;;1305.70;1075.20;;;;;;5091991;28;20058;-65
2023/07/13 06:55:38;;;;;;;17.92;16.30;;;1305.90;1024.00;;;;;;5091863;28;20079;-65
2023/07/13 06:58:04;;;;;;;17.70;16.25;;;1255.00;1075.20;;;;;;5091520;28;20020;-63
2023/07/13 07:00:30;;;;;;;19.05;17.17;;;1254.50;1075.20;;;;;;5091406;28;20020;-65
2023/07/13 07:02:56;;;;;;;17.88;16.10;;;1254.60;1075.20;;;;;;5091679;28;20069;-64
2023/07/13 07:05:22;;;;;;;17.17;15.38;;;1254.90;1075.20;;;;;;5091129;28;20016;-64
2023/07/13 07:07:52;;;;;;;14.82;13.77;;;1280.50;1049.60;;;;;;5091748;28;20123;-65
2023/07/13 07:10:18;;;;;;;16.25;14.82;;;1305.70;1024.00;;;;;;5091789;28;20028;-64
2023/07/13 07:12:44;;;;;;;17.17;15.60;;;1305.90;1024.00;;;;;;5091471;28;20051;-65
2023/07/13 07:15:11;;;;;;;15.70;14.38;;;1331.40;1024.00;;;;;;5091235;28;20072;-64
2023/07/13 07:17:36;;;;;;;15.70;14.45;;;1331.60;998.40;;;;;;5091290;28;20398;-70
2023/07/13 07:20:03;;;;;;;16.63;15.27;;;1331.70;972.80;;;;;;5090775;28;20024;-67
2023/07/13 07:22:30;;;;;;;17.98;16.15;;;1331.70;998.40;;;;;;5089237;28;20119;-67
2023/07/13 07:24:56;;;;;;;17.17;15.77;;;1331.70;972.80;;;;;;5089664;28;20066;-70
2023/07/13 07:27:21;;;;;;;15.35;14.25;;;1331.70;972.80;;;;;;5089306;28;20440;-69
2023/07/13 07:29:47;;;;;;;18.90;17.13;;;1331.40;972.80;;;;;;5089375;28;20028;-65
2023/07/13 07:32:13;;;;;;;21.35;18.13;;;1331.40;1024.00;;;;;;5089708;28;20028;-64
2023/07/13 07:34:38;;;;;;;19.88;17.42;;;1305.90;1049.60;;;;;;5088754;28;20527;-69
2023/07/13 07:37:04;;;;;;;16.42;15.18;;;1255.30;1100.80;;;;;;5089425;28;20063;-65
2023/07/13 07:39:30;;;;;;;16.65;15.25;;;1280.20;1024.00;;;;;;5089467;28;20103;-67
2023/07/13 07:41:56;;;;;;;16.73;15.43;;;1305.90;972.80;;;;;;5089100;28;20103;-65
2023/07/13 07:44:22;;;;;;;20.38;18.30;;;1280.40;1024.00;;;;;;5088808;28;20533;-67
2023/07/13 07:46:49;;;;;;;18.75;17.00;;;1255.00;1100.80;;;;;;5088931;28;20131;-70
2023/07/13 07:49:14;;;;;;;19.13;16.38;;;1228.80;1152.00;;;;;;5088548;28;20040;-65
2023/07/13 07:51:40;;;;;;;20.75;17.10;;;1254.40;1126.40;;;;;;5089177;28;20024;-67
2023/07/13 07:54:06;;;;;;;19.25;17.15;;;1280.40;1100.80;;;;;;5088838;28;20020;-63
2023/07/13 07:56:32;;;;;;;43.28;39.47;;;1229.00;1152.00;;;;;;5088576;28;20024;-65
2023/07/13 07:58:58;;;;;;;27.17;22.73;;;1254.90;1100.80;;;;;;5088963;28;20027;-64
2023/07/13 08:01:24;;;;;;;20.63;16.90;;;1280.90;1075.20;;;;;;5088479;28;20377;-66
2023/07/13 08:03:49;;;;;;;18.95;17.30;;;1305.60;1049.60;;;;;;5088897;28;20070;-67
2023/07/13 08:06:15;;;;;;;21.58;17.30;;;1280.90;1075.20;;;;;;5088982;28;20115;-64
2023/07/13 08:08:41;;;;;;;19.63;17.05;;;1280.50;1075.20;;;;;;5088465;28;20024;-67
2023/07/13 08:11:08;;;;;;;18.90;17.02;;;1280.50;1075.20;;;;;;5088746;28;20070;-64
2023/07/13 08:13:34;;;;;;;18.60;16.38;;;1280.50;1075.20;;;;;;5087966;28;20020;-70
2023/07/13 08:16:00;;;;;;;18.77;16.98;;;1306.30;1024.00;;;;;;5088509;28;20477;-66
2023/07/13 08:18:28;;;;;;;18.77;16.38;;;1280.00;1075.20;;;;;;5088384;28;20078;-68
2023/07/13 08:20:56;;;;;;;18.20;14.93;;;1255.00;1100.80;;;;;;5088259;28;20028;-64
2023/07/13 08:23:22;;;;;;;16.42;14.90;;;1229.20;1126.40;;;;;;5088073;28;20085;-66
2023/07/13 08:25:54;;;;;;;15.60;12.73;;;1203.30;1152.00;;;;;;5088729;28;20479;-64
2023/07/13 08:28:21;;;;;;;15.32;13.05;;;1152.60;1152.00;;;;;;5087744;28;20058;-64
2023/07/13 08:30:49;;;;;;;13.63;11.77;;;1127.00;1203.20;;;;;;5088386;28;20537;-65
2023/07/13 08:33:20;;;;;;;11.43;10.32;;;1126.40;1254.40;;;;;;5088446;28;20024;-65
2023/07/13 08:35:49;;;;;;;11.27;10.13;;;1101.50;1228.80;;;;;;5088459;28;20103;-64
2023/07/13 08:38:16;;;;;;;13.45;11.00;;;1101.10;1177.60;;;;;;5075236;28;20044;-64
2023/07/13 08:40:43;;;;;;;11.10;10.00;;;1100.90;1228.80;;;;;;5087320;28;20093;-62
2023/07/13 08:43:17;;;;;;;11.73;10.15;;;1075.80;1203.20;;;;;;5088337;28;20036;-63
2023/07/13 08:45:57;;;;;;;11.35;10.25;;;1075.50;1152.00;;;;;;5086902;28;20099;-66
2023/07/13 08:48:36;;;;;;;10.90;9.80;;;1075.60;1203.20;;;;;;5087704;28;20040;-65
2023/07/13 08:51:17;;;;;;;11.43;10.15;;;1075.30;1228.80;;;;;;5087860;28;20023;-67
2023/07/13 08:53:48;;;;;;;11.10;10.02;;;1050.40;1228.80;;;;;;5087813;28;20084;-65
2023/07/13 08:56:21;;;;;;;11.13;10.10;;;1050.10;1203.20;;;;;;5088020;28;20031;-63
2023/07/13 08:58:51;;;;;;;11.35;10.13;;;1050.10;1254.40;;;;;;5087566;28;20024;-67
2023/07/13 09:01:46;;;;;;;10.25;9.30;;;1050.10;1228.80;;;;;;5088061;28;20069;-70
2023/07/13 09:04:18;;;;;;;11.77;9.68;;;1050.00;1305.60;;;;;;5025097;28;20037;-64
2023/07/13 09:07:01;;;;;;;12.80;9.73;;;1050.00;1280.00;;;;;;5025048;28;20034;-64
2023/07/13 09:09:57;;;;;;;12.48;10.55;;;1050.00;1254.40;;;;;;5025288;28;20404;-64
2023/07/13 09:12:31;;;;;;;14.88;11.55;;;1049.70;1331.20;;;;;;5024511;28;20017;-66
2023/07/13 09:14:59;;;;;;;12.23;11.00;;;1024.60;1382.40;;;;;;5025037;28;20044;-69
2023/07/13 09:17:41;;;;;;;15.25;11.93;;;1024.00;1356.80;;;;;;5025134;28;20116;-64
2023/07/13 09:20:22;;;;;;;15.88;11.07;;;999.10;1408.00;;;;;;5024984;28;20025;-66
2023/07/13 09:22:48;;;;;;;17.33;11.27;;;999.10;1382.40;;;;;;5025102;28;20045;-64
2023/07/13 09:25:32;;;;;;;12.23;10.65;;;998.50;1408.00;;;;;;5024466;28;20033;-63
2023/07/13 09:28:25;;;;;;;14.63;10.52;;;998.80;1408.00;;;;;;5024315;28;20124;-64
2023/07/13 09:31:03;;;;;;;16.02;10.65;;;998.60;1408.00;;;;;;5014899;28;20045;-67
2023/07/13 09:33:30;;;;;;;13.18;10.02;;;998.80;1408.00;;;;;;5025006;28;20080;-67
2023/07/13 09:35:58;;;;;;;12.27;11.07;;;998.80;1382.40;;;;;;5026801;28;20119;-63
2023/07/13 09:38:29;;;;;;;13.15;10.15;;;998.50;1382.40;;;;;;5028401;28;20025;-64
2023/07/13 09:41:17;;;;;;;14.40;10.07;;;998.60;1433.60;;;;;;5048453;28;20447;-63
2023/07/13 09:44:11;;;;;;;14.93;10.00;;;973.70;1433.60;;;;;;5091159;28;20264;-64
2023/07/13 09:46:38;;;;;;;13.02;11.25;;;973.40;1459.20;;;;;;5091189;28;20040;-66
2023/07/13 09:49:04;;;;;;;17.45;11.38;;;973.30;1484.80;;;;;;5089785;28;20032;-63
2023/07/13 09:51:30;;;;;;;13.05;9.70;;;973.50;1459.20;;;;;;5089855;28;20039;-64
2023/07/13 09:53:56;;;;;;;11.00;9.85;;;973.20;1459.20;;;;;;5090371;28;20931;-66
2023/07/13 09:56:26;;;;;;;17.45;9.95;;;973.20;1484.80;;;;;;5090092;28;20108;-65
2023/07/13 09:58:52;;;;;;;13.23;10.02;;;973.00;1459.20;;;;;;5089562;28;20035;-67
2023/07/13 10:01:38;;;;;;;14.23;9.90;;;973.30;1510.40;;;;;;5090025;28;20366;-65
2023/07/13 10:04:16;;;;;;;10.63;9.63;;;973.20;1484.80;;;;;;5088126;28;20371;-63
2023/07/13 10:06:42;;;;;;;16.35;11.02;;;973.30;1484.80;;;;;;5090015;28;20369;-66
2023/07/13 10:09:10;;;;;;;11.98;9.07;;;973.30;1484.80;;;;;;5089838;28;20024;-63
2023/07/13 10:11:37;;;;;;;11.27;9.48;;;973.20;1459.20;;;;;;5089697;28;20020;-64
2023/07/13 10:14:09;;;;;;;11.70;9.50;;;972.90;1484.80;;;;;;5075802;28;20428;-62
2023/07/13 10:16:36;;;;;;;12.35;11.10;;;973.00;1459.20;;;;;;5089609;28;20442;-64
2023/07/13 10:19:32;;;;;;;12.30;9.90;;;972.80;1484.80;;;;;;5088923;28;20742;-63
2023/07/13 10:22:15;;;;;;;11.43;9.40;;;;;;;;;;5088576;28;20037;-64
2023/07/13 10:24:41;;;;;;;12.52;9.30;;;;;;;;;;5090307;28;20103;-64
2023/07/13 10:27:16;;;;;;;14.32;9.48;;;;;;;;;;5089553;28;20020;-63
2023/07/13 10:29:46;;;;;;;15.60;9.70;;;;;;;;;;5080130;28;20032;-64
2023/07/13 10:32:12;;;;;;;13.88;9.57;;;;;;;;;;5091054;28;20127;-63
2023/07/13 10:34:39;;;;;;;13.43;9.80;;;;;;;;;;5091012;28;20016;-64
2023/07/13 10:37:06;;;;;;;10.63;9.52;;;;;;;;;;5090783;28;20017;-64
2023/07/13 10:39:33;;;;;;;13.45;10.80;;;;;;;;;;5090894;28;20024;-63
2023/07/13 10:42:06;;;;;;;12.48;9.15;;;948.10;1484.80;;;;;;5090662;28;20016;-64
2023/07/13 10:44:33;;;;;;;13.02;10.50;;;948.10;1510.40;;;;;;5090911;28;20089;-63
2023/07/13 10:47:08;;;;;;;15.38;9.75;;;947.70;1484.80;;;;;;5050269;28;1144745;-63
2023/07/13 10:49:36;;;;;;;13.48;10.50;;;947.90;1484.80;;;;;;5091867;28;20073;-65
2023/07/13 10:52:03;;;;;;;11.27;10.13;;;947.70;1484.80;;;;;;5091835;28;20109;-63
2023/07/13 10:54:34;;;;;;;11.68;10.18;;;947.50;1484.80;;;;;;5092107;28;20024;-64
2023/07/13 10:57:26;;;;;;;12.43;10.77;;;947.60;1484.80;;;;;;5091811;28;20016;-64
2023/07/13 11:00:15;;;;;;;17.67;10.95;;;947.70;1484.80;;;;;;5087607;28;20051;-64
2023/07/13 11:02:42;;;;;;;11.32;10.10;;;947.50;1484.80;;;;;;5091428;28;20035;-64
2023/07/13 11:05:27;;;;;;;14.65;10.82;;;947.40;1484.80;;;;;;5091800;28;20016;-64
2023/07/13 11:07:56;;;;;;;34.30;13.07;;;;;;;;;;5091412;28;20054;-64
2023/07/13 11:10:57;;;;;;;13.63;9.38;;;;;;;;;;5091461;28;20081;-65
2023/07/13 11:14:00;;;;;;;16.52;9.93;;;;;;;;;;5028825;28;20029;-63
2023/07/13 11:16:37;;;;;;;12.55;10.43;;;;;;;;;;4989654;28;20058;-63
2023/07/13 11:19:03;;;;;;;15.63;10.38;;;;;;;;;;4989222;28;20127;-63
2023/07/13 11:21:30;;;;;;;17.02;10.43;;;;;;;;;;4989314;28;20393;-63
2023/07/13 11:24:03;;;;;;;12.15;9.82;;;;;;;;;;4989526;28;20034;-63
2023/07/13 11:26:38;;;;;;;12.07;10.80;;;;;;;;;;4989208;28;20592;-63
2023/07/13 11:29:32;;;;;;;13.95;10.15;;;922.50;1510.40;;;;;;4989257;28;20054;-63
2023/07/13 11:32:02;;;;;;;14.35;11.02;;;922.50;1510.40;;;;;;4989237;28;20038;-63
2023/07/13 11:34:34;;;;;;;14.55;11.77;;;947.40;1510.40;;;;;;4989121;28;20038;-64
2023/07/13 11:37:01;;;;;;;17.90;11.20;;;947.40;1587.20;;;;;;4989123;28;20038;-62
2023/07/13 11:39:36;;;;;;;13.75;11.60;;;947.50;1536.00;;;;;;4989196;28;20135;-64
2023/07/13 11:42:09;;;;;;;20.25;11.95;;;947.20;1510.40;;;;;;4988652;28;20026;-63
2023/07/13 11:44:35;;;;;;;12.45;10.15;;;947.30;1510.40;;;;;;4988792;28;20030;-63
2023/07/13 11:47:09;;;;;;;13.15;10.45;;;947.30;1536.00;;;;;;5002561;28;20033;-65
2023/07/13 11:49:43;;;;;;;11.93;9.82;;;947.20;1536.00;;;;;;5054819;28;20070;-65
2023/07/13 11:52:15;;;;;;;11.60;10.40;;;947.20;1536.00;;;;;;5090771;28;20070;-68
2023/07/13 11:54:50;;;;;;;11.82;9.57;;;947.20;1510.40;;;;;;5090436;28;20074;-66
2023/07/13 11:57:31;;;;;;;11.82;10.52;;;922.30;1510.40;;;;;;5090195;28;20470;-66
2023/07/13 11:59:59;;;;;;;14.48;11.05;;;947.30;1561.60;;;;;;5090555;28;20043;-63
2023/07/13 12:02:36;;;;;;;13.27;10.73;;;922.30;1536.00;;;;;;5090773;28;20023;-63
2023/07/13 12:05:03;;;;;;;18.55;11.80;;;922.50;1510.40;;;;;;5090175;28;20081;-65
2023/07/13 12:07:31;;;;;;;14.32;10.80;;;947.30;1561.60;;;;;;5083915;28;20036;-63
2023/07/13 12:10:17;;;;;;;13.70;11.32;;;947.30;1561.60;;;;;;5083587;28;20051;-65
2023/07/13 12:12:54;;;;;;;19.92;11.68;;;947.20;1561.60;;;;;;5090284;28;20028;-65
2023/07/13 12:15:22;;;;;;;14.55;12.00;;;922.50;1561.60;;;;;;5090111;28;20035;-63
2023/07/13 12:17:48;;;;;;;18.52;11.60;;;947.30;1561.60;;;;;;5090303;28;20028;-63
2023/07/13 12:20:26;;;;;;;12.98;11.27;;;947.30;1561.60;;;;;;5089691;28;20025;-64